Alaska Titan — WDE4789 — position and weather

sailwx.info

Track history (hours):
 
Tides and Currents Weather Stations Pressure Air Temp Water Temp Dewpoint Dewpoint Depression Visibility Wind Speed Wind Dir Waves Ship Positions

Alaska Titan

More information available from US FCC via Universal Licensing System and Coast Guard Vessel Documentation Center.

Last reported at 2014-Jul-25 10:33 UTC. Time now 2014-Jul-25 11:20 UTC.
Position N 51°00' W 127°36'.

Length 40 m; draft 6 m.

Type: Tow > 200 m length. MMSI: 367357000.

Date/timePositionNaut miles runAvg speedWind from/ knotsBaromVisibWave heightAir tempDewpointWater temp
2014-Jul-25 10:33N 51°00' W 127°36'1010.3
2014-Jul-25 09:34N 50°54' W 127°23'10 9.9
2014-Jul-25 08:32N 50°47' W 127°11'10 9.4
2014-Jul-25 07:27N 50°42' W 126°57'8 8.4
2014-Jul-25 06:33N 50°37' W 126°49'9 8.5
2014-Jul-25 05:32N 50°31' W 126°39'1010.2
2014-Jul-25 04:32N 50°30' W 126°23'4110.0
2014-Jul-25 00:26N 50°15' W 125°23'8 8.4
2014-Jul-24 23:26N 50°07' W 125°19'8 6.3
2014-Jul-24 22:07N 49°60' W 125°12'4 6.5
2014-Jul-24 21:33N 49°57' W 125°08'9 9.2
2014-Jul-24 20:33N 49°51' W 124°58'1110.0
2014-Jul-24 19:27N 49°44' W 124°45'910.0
2014-Jul-24 18:33N 49°39' W 124°33'10 9.7
2014-Jul-24 17:33N 49°33' W 124°21'10 9.7
2014-Jul-24 16:33N 49°29' W 124°08'8 7.9
2014-Jul-24 15:33N 49°24' W 123°58'9 9.0
2014-Jul-24 14:32N 49°18' W 123°47'9 9.3
2014-Jul-24 13:33N 49°13' W 123°36'10 9.8
2014-Jul-24 12:34N 49°06' W 123°25'9 9.3
2014-Jul-24 11:33N 48°60' W 123°14'9 9.0
2014-Jul-24 10:34N 48°54' W 123°04'1010.2
2014-Jul-24 09:33N 48°48' W 122°52'9 9.3
2014-Jul-24 08:33N 48°40' W 122°44'9 8.7
2014-Jul-24 07:33N 48°31' W 122°45'10 9.5
2014-Jul-24 06:28N 48°21' W 122°45'8 8.8
2014-Jul-24 05:31N 48°13' W 122°48'1110.3
2014-Jul-24 04:29N 48°04' W 122°38'710.8
2014-Jul-24 03:48N 47°58' W 122°33'310.7
2014-Jul-24 03:34N 47°56' W 122°30'0 8.7
2014-Jul-24 03:33N 47°56' W 122°30'1010.2
2014-Jul-24 02:33N 47°46' W 122°26'0 9.1
2014-Jul-24 02:33N 47°46' W 122°26'9 9.2
2014-Jul-24 01:31N 47°37' W 122°24'2 6.7
2014-Jul-24 01:11N 47°36' W 122°21'0 0.4
2014-Jul-24 00:33N 47°35' W 122°21'0 0.1
2014-Jul-24 00:30N 47°35' W 122°21'0 0.0
2014-Jul-23 23:33N 47°35' W 122°21'0 0.0
2014-Jul-23 23:30N 47°35' W 122°21'0 0.5
2014-Jul-23 22:33N 47°35' W 122°22'6 9.5
2014-Jul-23 21:58N 47°39' W 122°27'2 4.8
2014-Jul-23 21:33N 47°40' W 122°24'0 3.5
2014-Jul-23 21:33N 47°40' W 122°24'  
2014-Jul-18 16:09N 47°39' W 122°22'0 2.2
2014-Jul-18 16:08N 47°39' W 122°22'2 3.0
2014-Jul-18 15:33N 47°40' W 122°24'0 0.8
2014-Jul-18 15:33N 47°40' W 122°24'5 5.3
2014-Jul-18 14:33N 47°35' W 122°21'0 0.3
2014-Jul-18 14:32N 47°35' W 122°21'1 1.3
2014-Jul-18 13:33N 47°36' W 122°23'0 2.7
2014-Jul-18 13:31N 47°36' W 122°23'5 5.6
2014-Jul-18 12:33N 47°40' W 122°28'0 5.1
2014-Jul-18 12:32N 47°40' W 122°28'6 5.6
2014-Jul-18 11:33N 47°46' W 122°27'6 5.5
2014-Jul-18 10:33N 47°51' W 122°29'0 5.5
2014-Jul-18 10:29N 47°52' W 122°29'5 4.9
2014-Jul-18 09:33N 47°56' W 122°32'1 4.0
2014-Jul-18 09:18N 47°56' W 122°33'3 4.0
2014-Jul-18 08:33N 47°58' W 122°36'4 3.7
2014-Jul-18 07:32N 48°02' W 122°39'13 6.3
2014-Jul-18 05:31N 48°13' W 122°48'9 9.6
2014-Jul-18 04:33N 48°22' W 122°46'8 8.3
2014-Jul-18 03:33N 48°30' W 122°44'6 6.5
2014-Jul-18 02:33N 48°37' W 122°45'6 6.3
2014-Jul-18 01:33N 48°43' W 122°45'9 9.0
2014-Jul-18 00:33N 48°48' W 122°56'9 8.9
2014-Jul-17 23:33N 48°53' W 123°07'10 9.8
2014-Jul-17 22:33N 48°60' W 123°19'1010.2
2014-Jul-17 21:33N 49°07' W 123°29'10 9.4
2014-Jul-17 20:33N 49°14' W 123°40'7 7.4
2014-Jul-17 19:33N 49°18' W 123°49'9 8.6
2014-Jul-17 18:33N 49°23' W 123°59'1010.1
2014-Jul-17 17:33N 49°30' W 124°11'10 9.7
2014-Jul-17 16:33N 49°35' W 124°24'9 9.2
2014-Jul-17 15:33N 49°40' W 124°36'9 9.3
2014-Jul-17 14:32N 49°45' W 124°48'9 9.6
2014-Jul-17 13:33N 49°52' W 124°59'8 7.9
2014-Jul-17 12:33N 49°57' W 125°08'12 8.7
2014-Jul-17 11:12N 50°06' W 125°18'13 4.4
2014-Jul-17 08:10N 50°19' W 125°25'41 6.0
2014-Jul-17 01:15N 50°30' W 126°28'7 9.4
2014-Jul-17 00:32N 50°31' W 126°38'22 9.8
2014-Jul-16 22:18N 50°45' W 127°05'810.4
2014-Jul-16 21:33N 50°49' W 127°15'9 8.5
2014-Jul-16 20:33N 50°55' W 127°25'9 9.3
2014-Jul-16 19:33N 51°01' W 127°36'9 9.0
2014-Jul-16 18:33N 51°07' W 127°47'10 9.3
2014-Jul-16 17:29N 51°16' W 127°53'9 9.4
2014-Jul-16 16:31N 51°24' W 128°01'  
Track history (hours):
 
Tides and Currents Weather Stations Pressure Air Temp Water Temp Dewpoint Dewpoint Depression Visibility Wind Speed Wind Dir Waves Ship Positions

Alaska Titan

More information available from US FCC via Universal Licensing System and Coast Guard Vessel Documentation Center.

Last reported at 2014-Jul-25 10:33 UTC. Time now 2014-Jul-25 11:20 UTC.
Position N 51°00' W 127°36'.

Length 40 m; draft 6 m.

Type: Tow > 200 m length. MMSI: 367357000.

Date/timePositionNaut miles runAvg speedWind from/ knotsBaromVisibWave heightAir tempDewpointWater temp
2014-Jul-25 10:33N 51°00' W 127°36'1010.3
2014-Jul-25 09:34N 50°54' W 127°23'10 9.9
2014-Jul-25 08:32N 50°47' W 127°11'10 9.4
2014-Jul-25 07:27N 50°42' W 126°57'8 8.4
2014-Jul-25 06:33N 50°37' W 126°49'9 8.5
2014-Jul-25 05:32N 50°31' W 126°39'1010.2
2014-Jul-25 04:32N 50°30' W 126°23'4110.0
2014-Jul-25 00:26N 50°15' W 125°23'8 8.4
2014-Jul-24 23:26N 50°07' W 125°19'8 6.3
2014-Jul-24 22:07N 49°60' W 125°12'4 6.5
2014-Jul-24 21:33N 49°57' W 125°08'9 9.2
2014-Jul-24 20:33N 49°51' W 124°58'1110.0
2014-Jul-24 19:27N 49°44' W 124°45'910.0
2014-Jul-24 18:33N 49°39' W 124°33'10 9.7
2014-Jul-24 17:33N 49°33' W 124°21'10 9.7
2014-Jul-24 16:33N 49°29' W 124°08'8 7.9
2014-Jul-24 15:33N 49°24' W 123°58'9 9.0
2014-Jul-24 14:32N 49°18' W 123°47'9 9.3
2014-Jul-24 13:33N 49°13' W 123°36'10 9.8
2014-Jul-24 12:34N 49°06' W 123°25'9 9.3
2014-Jul-24 11:33N 48°60' W 123°14'9 9.0
2014-Jul-24 10:34N 48°54' W 123°04'1010.2
2014-Jul-24 09:33N 48°48' W 122°52'9 9.3
2014-Jul-24 08:33N 48°40' W 122°44'9 8.7
2014-Jul-24 07:33N 48°31' W 122°45'10 9.5
2014-Jul-24 06:28N 48°21' W 122°45'8 8.8
2014-Jul-24 05:31N 48°13' W 122°48'1110.3
2014-Jul-24 04:29N 48°04' W 122°38'710.8
2014-Jul-24 03:48N 47°58' W 122°33'310.7
2014-Jul-24 03:34N 47°56' W 122°30'0 8.7
2014-Jul-24 03:33N 47°56' W 122°30'1010.2
2014-Jul-24 02:33N 47°46' W 122°26'0 9.1
2014-Jul-24 02:33N 47°46' W 122°26'9 9.2
2014-Jul-24 01:31N 47°37' W 122°24'2 6.7
2014-Jul-24 01:11N 47°36' W 122°21'0 0.4
2014-Jul-24 00:33N 47°35' W 122°21'0 0.1
2014-Jul-24 00:30N 47°35' W 122°21'0 0.0
2014-Jul-23 23:33N 47°35' W 122°21'0 0.0
2014-Jul-23 23:30N 47°35' W 122°21'0 0.5
2014-Jul-23 22:33N 47°35' W 122°22'6 9.5
2014-Jul-23 21:58N 47°39' W 122°27'2 4.8
2014-Jul-23 21:33N 47°40' W 122°24'0 3.5
2014-Jul-23 21:33N 47°40' W 122°24'  
2014-Jul-18 16:09N 47°39' W 122°22'0 2.2
2014-Jul-18 16:08N 47°39' W 122°22'2 3.0
2014-Jul-18 15:33N 47°40' W 122°24'0 0.8
2014-Jul-18 15:33N 47°40' W 122°24'5 5.3
2014-Jul-18 14:33N 47°35' W 122°21'0 0.3
2014-Jul-18 14:32N 47°35' W 122°21'1 1.3
2014-Jul-18 13:33N 47°36' W 122°23'0 2.7
2014-Jul-18 13:31N 47°36' W 122°23'5 5.6
2014-Jul-18 12:33N 47°40' W 122°28'0 5.1
2014-Jul-18 12:32N 47°40' W 122°28'6 5.6
2014-Jul-18 11:33N 47°46' W 122°27'6 5.5
2014-Jul-18 10:33N 47°51' W 122°29'0 5.5
2014-Jul-18 10:29N 47°52' W 122°29'5 4.9
2014-Jul-18 09:33N 47°56' W 122°32'1 4.0
2014-Jul-18 09:18N 47°56' W 122°33'3 4.0
2014-Jul-18 08:33N 47°58' W 122°36'4 3.7
2014-Jul-18 07:32N 48°02' W 122°39'13 6.3
2014-Jul-18 05:31N 48°13' W 122°48'9 9.6
2014-Jul-18 04:33N 48°22' W 122°46'8 8.3
2014-Jul-18 03:33N 48°30' W 122°44'6 6.5
2014-Jul-18 02:33N 48°37' W 122°45'6 6.3
2014-Jul-18 01:33N 48°43' W 122°45'9 9.0
2014-Jul-18 00:33N 48°48' W 122°56'9 8.9
2014-Jul-17 23:33N 48°53' W 123°07'10 9.8
2014-Jul-17 22:33N 48°60' W 123°19'1010.2
2014-Jul-17 21:33N 49°07' W 123°29'10 9.4
2014-Jul-17 20:33N 49°14' W 123°40'7 7.4
2014-Jul-17 19:33N 49°18' W 123°49'9 8.6
2014-Jul-17 18:33N 49°23' W 123°59'1010.1
2014-Jul-17 17:33N 49°30' W 124°11'10 9.7
2014-Jul-17 16:33N 49°35' W 124°24'9 9.2
2014-Jul-17 15:33N 49°40' W 124°36'9 9.3
2014-Jul-17 14:32N 49°45' W 124°48'9 9.6
2014-Jul-17 13:33N 49°52' W 124°59'8 7.9
2014-Jul-17 12:33N 49°57' W 125°08'12 8.7
2014-Jul-17 11:12N 50°06' W 125°18'13 4.4
2014-Jul-17 08:10N 50°19' W 125°25'41 6.0
2014-Jul-17 01:15N 50°30' W 126°28'7 9.4
2014-Jul-17 00:32N 50°31' W 126°38'22 9.8
2014-Jul-16 22:18N 50°45' W 127°05'810.4
2014-Jul-16 21:33N 50°49' W 127°15'9 8.5
2014-Jul-16 20:33N 50°55' W 127°25'9 9.3
2014-Jul-16 19:33N 51°01' W 127°36'9 9.0
2014-Jul-16 18:33N 51°07' W 127°47'10 9.3
2014-Jul-16 17:29N 51°16' W 127°53'9 9.4
2014-Jul-16 16:31N 51°24' W 128°01'  

Dump ship's entire track history